Flight Track Log - Related Links

Times and Time Zones

All times are in EDT time to prevent confusion due to time zone crossing. See the RPA3228 flight status page for this flight to view local times or setup timezone preferences in your user account.

Time Position Orientation Groundspeed Altitude Reporting Facility
EDT Latitude Longitude Course Direction KTS MPH feet Rate Location/Type
Thu 11:14:04 AM 38.8833 -77.0500 333° Northwest 165 190 1,700  Level Potomac TRACON
Thu 11:15:04 AM 38.9167 -77.1000 311° West 216 249 3,900 2,550 Climbing Potomac TRACON
Thu 11:16:00 AM 39.1617 -77.2005 330° Northwest  Level FlightAware Approximate
Thu 11:16:04 AM 38.9667 -77.1667 314° West 258 297 6,800  Level Potomac TRACON
Thu 11:17:00 AM 39.2447 -77.2396 337° Northwest  Level FlightAware Approximate
Thu 11:17:05 AM 39.0000 -77.2500 297° West 270 311 10,000  Level Potomac TRACON
Thu 11:18:00 AM 39.3265 -77.2850 337° Northwest  Level FlightAware Approximate
Thu 11:19:00 AM 39.4075 -77.3327 333° Northwest  Level FlightAware Approximate
Thu 11:19:00 AM 39.0514 -77.4358 290° West 301 346 14,300  Level Washington Center
Thu 11:19:58 AM 39.1408 -77.4569 350° North 284 327 16,400 2,067 Climbing Washington Center
Thu 11:20:59 AM 39.2408 -77.4567 360° North 312 359 18,400 1,970 Climbing Washington Center
Thu 11:23:16 AM 39.5006 -77.4575 360° North 379 436 22,900 1,888 Climbing New York Center
Thu 11:24:16 AM 39.6133 -77.4575 360° North 391 450 24,600 1,623 Climbing New York Center
Thu 11:25:18 AM 39.7281 -77.4575 360° North 403 464 26,200 1,300 Climbing New York Center
Thu 11:26:16 AM 39.8469 -77.4553 North 413 475 27,200 915 Climbing New York Center
Thu 11:27:16 AM 39.9703 -77.4508 North 425 489 28,000 397 Climbing New York Center
Thu 11:28:17 AM 40.0850 -77.4508 360° North 424 488 28,000  Level New York Center
Thu 11:29:17 AM 40.1836 -77.4742 350° North 417 480 28,000  Level New York Center
Thu 11:30:15 AM 40.2897 -77.5169 343° North 399 459 28,000  Level New York Center
Thu 11:31:15 AM 40.4056 -77.5664 342° North 394 453 28,000  Level New York Center
Thu 11:32:15 AM 40.5094 -77.6094 343° North 394 453 28,000 -198 Level New York Center
Thu 11:33:16 AM 40.6175 -77.6531 343° North 394 453 27,600 -789 Descending New York Center
Thu 11:34:47 AM 40.7733 -77.7178 343° North 419 482 26,000 -636 Descending Cleveland Center
Thu 11:35:47 AM 40.8786 -77.7628 342° North 414 476 26,000  Level Cleveland Center
Thu 11:36:47 AM 40.9967 -77.8125 342° North 404 465 26,000  Level Cleveland Center
Thu 11:37:47 AM 41.1019 -77.8578 342° North 404 465 26,000  Level Cleveland Center
Thu 11:38:47 AM 41.2072 -77.9003 343° North 404 465 26,000  Level Cleveland Center
Thu 11:39:47 AM 41.3125 -77.9458 342° North 404 465 26,000  Level Cleveland Center
Thu 11:40:47 AM 41.4158 -77.9886 343° North 399 459 26,000 -400 Level Cleveland Center
Thu 11:41:47 AM 41.5231 -78.0342 342° North 394 453 25,200 -1,000 Descending Cleveland Center
Thu 11:42:47 AM 41.6219 -78.0775 342° North 388 447 24,000 -600 Descending Cleveland Center
Thu 11:43:47 AM 41.7211 -78.1211 342° North 383 441 24,000 -900 Level Cleveland Center
Thu 11:44:47 AM 41.8219 -78.1617 343° North 383 441 22,200 -1,800 Descending Cleveland Center
Thu 11:45:47 AM 41.9228 -78.2053 342° North 383 441 20,400 -1,750 Descending Cleveland Center
Thu 11:46:47 AM 42.0197 -78.2467 342° North 378 435 18,700 -1,650 Descending Cleveland Center
Thu 11:47:47 AM 42.1100 -78.2881 341° North 360 414 17,100 -1,600 Descending Cleveland Center
Thu 11:48:47 AM 42.1942 -78.3214 344° North 355 409 15,500 -1,550 Descending Cleveland Center
Thu 11:49:47 AM 42.2825 -78.3603 342° North 348 400 14,000 -1,550 Descending Cleveland Center
Thu 11:50:47 AM 42.3750 -78.3994 343° North 330 380 12,400 -1,500 Descending Cleveland Center
Thu 11:51:47 AM 42.4569 -78.4358 342° North 324 373 11,000 -1,100 Descending Cleveland Center
Thu 11:52:47 AM 42.5328 -78.4728 340° North 302 348 10,200 -1,350 Descending Cleveland Center
Thu 11:53:47 AM 42.6042 -78.5042 342° North 288 331 8,300 -1,450 Descending Cleveland Center
Thu 11:54:47 AM 42.6672 -78.5303 343° North 256 295 7,300 -1,250 Descending Cleveland Center
Thu 11:55:47 AM 42.7197 -78.5625 336° Northwest 229 264 5,800 -1,550 Descending Cleveland Center
Thu 11:56:47 AM 42.7850 -78.5917 342° North 229 264 4,200 -1,150 Descending Cleveland Center
Thu 11:57:47 AM 42.8417 -78.6153 343° North 224 258 3,500 -700 Descending Cleveland Center
Thu 11:58:47 AM 42.8836 -78.6339 342° North 193 222 2,800 -892 Descending Cleveland Center
Thu 12:00:15 PM 42.9167 -78.6833 312° West 128 147 1,300 -1,023 Descending Buffalo TRACON

Login

Don't have an account? Register now (free) for customized features, flight alerts, and more!